Oceano, CA

11:33 PM PDT on May 22, 2015 (GMT -0700)
Sierra Drive and Hillcrest | | Change Station
CLOSE
Current Station
Personal Weather Station
Location: Arroyo Grande, CA
Elevation: 249 ft
Nearby Weather Stations

Elev 249 ft 35.13 °N, 120.60 °W | Updated 8 minutes ago

Overcast
Overcast
56.8 °F
Feels Like 56.8 °F
N
1.1
Wind Variable Wind from NE

Today
High -- | Low -- °F
--% Chance of Precip.
Yesterday
High -- | Low -- °F
Precip. -- in
5:54 AM 8:04 PM
Waxing Crescent, 27% visible
Pressure 30.10 in
Visibility 10.0 miles
Clouds Mostly Cloudy 1700 ft
Dew Point 52 °F
Humidity 84%
Rainfall 0.00 in
Snow Depth Not available.
UV 0 out of 12
Pollen 1.80 out of 12
Air Quality Not available.
Flu Activity Sporadic
SPECI KSBP 230620Z AUTO 31003KT 10SM BKN017 14/11 A3010 RMK AO2 T01390111

More Conditions Fewer Conditions

Pressure 30.10 in
Visibility 10.0 miles
Clouds Mostly Cloudy 1700 ft
Dew Point 52 °F
Humidity 84%
Rainfall 0.00 in
Snow Depth Not available.
UV 0 out of 12
Pollen 1.80 out of 12
Air Quality Not available.
Flu Activity Sporadic
SPECI KSBP 230620Z AUTO 31003KT 10SM BKN017 14/11 A3010 RMK AO2 T01390111

More Conditions Fewer Conditions

10-Day Weather Forecast

Almanac

Astronomy

May. 22, 2015 Rise Set
Actual Time
Civil Twilight
Nautical Twilight
Astronomical Twilight
Moon
Length of Visible Light
Length of Day
Tomorrow will be .
, % of the Moon is Illuminated

Today's Extremes

State Highs State Lows

Community

WunderPhotos

Upload Photos

1,823,394 photos uploaded!

WunderBlogs® & News

Nearby

Air Quality

  Air Quality AQ Index Pollutant
Not available.

Snow Depth

Station Depth Elevation

Earthquake Activity

City Distance Mag. Time & Date
Minimum magnitude displayed is 2.5.

Coastal Water Temperatures

Place Temperature

Stations

Nearby Weather Stations

Station Location Temp. Windchill Dew Point Humidity Wind Precip. Elev Updated Type